Climatologie pour Saint-Brevin les Pins
Jour • Résumé pour février 24, 2017 Système :  Métrique    Anglais   Mixte
« - 1 jour
+ 1 jour »
Jour Semaine Mois Année Personnalisé
  Maximum : Minimum : Moyenne :
Température sous abri : 13.7 °C 2.8 °C 7.4 °C
Point de rosée : 7.4 °C 2.2 °C 4.5 °C
Humidité : 96 % 56 % 83 %
Vitesse du vent : 17.7 km/h 0.0 km/h 4.4 km/h
Rafale : 20.9 km/h - -
Direction :- - WNW
Pression : 1023.6 hPa 1015.8 hPa -
Précipitations : 0.0 mm    
Historical Graphs
 
 
Tableau de données pour février 24, 2017
Heure Tempé Pt rosée Pression Vent Vitesse Rafale Humidité Taux pluie (/hr) Soleil
00:00 7.5 °C 5.3 °C 1015.8 hPa NW 4.8 km/h 14.5 km/h 86 % 0.0 mm 0 W/m2
00:10 7.4 °C 5.4 °C 1015.8 hPa WNW 8.0 km/h 16.1 km/h 87 % 0.0 mm 0 W/m2
00:15 7.4 °C 5.4 °C 1015.8 hPa WNW 6.4 km/h 16.1 km/h 87 % 0.0 mm 0 W/m2
00:20 7.4 °C 5.4 °C 1015.8 hPa NW 6.4 km/h 16.1 km/h 87 % 0.0 mm 0 W/m2
00:25 7.4 °C 5.4 °C 1015.8 hPa West 4.8 km/h 16.1 km/h 87 % 0.0 mm 0 W/m2
00:30 7.3 °C 5.3 °C 1016.1 hPa NNW 4.8 km/h 16.1 km/h 87 % 0.0 mm 0 W/m2
00:40 7.2 °C 5.1 °C 1015.8 hPa WNW 11.3 km/h 16.1 km/h 87 % 0.0 mm 0 W/m2
00:45 6.9 °C 4.9 °C 1016.1 hPa NW 9.7 km/h 14.5 km/h 87 % 0.0 mm 0 W/m2
00:55 6.9 °C 4.9 °C 1016.5 hPa NW 11.3 km/h 16.1 km/h 87 % 0.0 mm 0 W/m2
01:00 6.9 °C 4.9 °C 1016.5 hPa WNW 4.8 km/h 17.7 km/h 87 % 0.0 mm 0 W/m2
01:05 6.9 °C 4.9 °C 1016.5 hPa WNW 4.8 km/h 17.7 km/h 87 % 0.0 mm 0 W/m2
01:10 6.9 °C 4.9 °C 1016.5 hPa NW 4.8 km/h 14.5 km/h 87 % 0.0 mm 0 W/m2
01:15 6.8 °C 4.8 °C 1016.5 hPa NW 6.4 km/h 14.5 km/h 87 % 0.0 mm 0 W/m2
01:20 6.7 °C 4.7 °C 1016.5 hPa NW 4.8 km/h 12.9 km/h 87 % 0.0 mm 0 W/m2
01:25 6.6 °C 4.8 °C 1016.5 hPa NW 3.2 km/h 12.9 km/h 88 % 0.0 mm 0 W/m2
01:30 6.6 °C 4.8 °C 1016.5 hPa NW 4.8 km/h 12.9 km/h 88 % 0.0 mm 0 W/m2
01:40 6.4 °C 4.7 °C 1016.5 hPa NW 3.2 km/h 12.9 km/h 89 % 0.0 mm 0 W/m2
01:45 6.6 °C 4.9 °C 1016.5 hPa NW 6.4 km/h 14.5 km/h 89 % 0.0 mm 0 W/m2
01:50 6.6 °C 4.7 °C 1016.8 hPa WNW 4.8 km/h 14.5 km/h 88 % 0.0 mm 0 W/m2
01:55 6.4 °C 4.6 °C 1016.8 hPa NNW 4.8 km/h 14.5 km/h 88 % 0.0 mm 0 W/m2
02:00 6.3 °C 4.5 °C 1016.8 hPa WNW 6.4 km/h 12.9 km/h 88 % 0.0 mm 0 W/m2
02:05 6.2 °C 4.5 °C 1016.8 hPa NW 4.8 km/h 11.3 km/h 89 % 0.0 mm 0 W/m2
02:10 6.0 °C 4.3 °C 1016.8 hPa NW 6.4 km/h 12.9 km/h 89 % 0.0 mm 0 W/m2
02:15 6.0 °C 4.5 °C 1016.8 hPa NW 8.0 km/h 12.9 km/h 90 % 0.0 mm 0 W/m2
02:25 5.9 °C 4.4 °C 1016.8 hPa NW 4.8 km/h 12.9 km/h 90 % 0.0 mm 0 W/m2
02:30 5.9 °C 4.4 °C 1016.8 hPa NW 4.8 km/h 11.3 km/h 90 % 0.0 mm 0 W/m2
02:35 5.8 °C 4.3 °C 1016.8 hPa NW 4.8 km/h 9.7 km/h 90 % 0.0 mm 0 W/m2
02:40 5.6 °C 4.1 °C 1016.8 hPa NW 4.8 km/h 11.3 km/h 90 % 0.0 mm 0 W/m2
02:45 5.6 °C 4.3 °C 1017.2 hPa NW 9.7 km/h 12.9 km/h 91 % 0.0 mm 0 W/m2
02:50 5.5 °C 4.1 °C 1017.2 hPa WNW 1.6 km/h 17.7 km/h 91 % 0.0 mm 0 W/m2
02:55 5.7 °C 4.3 °C 1017.2 hPa WNW 4.8 km/h 17.7 km/h 91 % 0.0 mm 0 W/m2
03:00 5.6 °C 4.2 °C 1017.2 hPa NW 3.2 km/h 17.7 km/h 91 % 0.0 mm 0 W/m2
03:10 5.4 °C 4.2 °C 1017.2 hPa NNW 4.8 km/h 14.5 km/h 92 % 0.0 mm 0 W/m2
03:15 5.4 °C 4.0 °C 1017.2 hPa NNW 9.7 km/h 11.3 km/h 91 % 0.0 mm 0 W/m2
03:20 5.3 °C 3.9 °C 1017.5 hPa NW 1.6 km/h 16.1 km/h 91 % 0.0 mm 0 W/m2
03:25 5.3 °C 3.9 °C 1017.5 hPa NW 3.2 km/h 16.1 km/h 91 % 0.0 mm 0 W/m2
03:30 5.2 °C 4.0 °C 1017.5 hPa NNW 6.4 km/h 8.0 km/h 92 % 0.0 mm 0 W/m2
03:35 5.2 °C 4.0 °C 1017.5 hPa NW 8.0 km/h 9.7 km/h 92 % 0.0 mm 0 W/m2
03:40 5.2 °C 3.9 °C 1017.5 hPa WNW 3.2 km/h 9.7 km/h 91 % 0.0 mm 0 W/m2
03:45 5.3 °C 3.9 °C 1017.5 hPa NW 4.8 km/h 11.3 km/h 91 % 0.0 mm 0 W/m2
03:55 5.2 °C 3.8 °C 1017.5 hPa WNW 4.8 km/h 14.5 km/h 91 % 0.0 mm 0 W/m2
04:00 5.1 °C 3.8 °C 1017.5 hPa NW 4.8 km/h 14.5 km/h 91 % 0.0 mm 0 W/m2
04:10 5.0 °C 3.7 °C 1017.5 hPa WNW 6.4 km/h 12.9 km/h 91 % 0.0 mm 0 W/m2
04:20 5.1 °C 3.9 °C 1017.5 hPa NW 11.3 km/h 14.5 km/h 92 % 0.0 mm 0 W/m2
04:25 5.2 °C 3.9 °C 1017.2 hPa WNW 6.4 km/h 12.9 km/h 91 % 0.0 mm 0 W/m2
04:30 5.2 °C 3.8 °C 1017.5 hPa NW 1.6 km/h 12.9 km/h 91 % 0.0 mm 0 W/m2
04:40 5.3 °C 3.9 °C 1017.5 hPa NW 4.8 km/h 11.3 km/h 91 % 0.0 mm 0 W/m2
04:45 5.2 °C 3.8 °C 1017.5 hPa NW 1.6 km/h 9.7 km/h 91 % 0.0 mm 0 W/m2
04:50 4.8 °C 3.5 °C 1017.8 hPa Calm   8.0 km/h 91 % 0.0 mm 0 W/m2
04:55 4.6 °C 3.4 °C 1017.8 hPa NW 8.0 km/h 8.0 km/h 92 % 0.0 mm 0 W/m2
05:00 4.4 °C 3.2 °C 1017.8 hPa NW 3.2 km/h 8.0 km/h 92 % 0.0 mm 0 W/m2
05:05 4.2 °C 3.1 °C 1017.8 hPa NW 1.6 km/h 8.0 km/h 93 % 0.0 mm 0 W/m2
05:10 4.2 °C 3.1 °C 1017.8 hPa NW 3.2 km/h 11.3 km/h 93 % 0.0 mm 0 W/m2
05:15 4.4 °C 3.5 °C 1017.8 hPa NNW 4.8 km/h 11.3 km/h 94 % 0.0 mm 0 W/m2
05:25 4.6 °C 3.5 °C 1017.8 hPa NW 3.2 km/h 9.7 km/h 93 % 0.0 mm 0 W/m2
05:30 4.7 °C 3.7 °C 1017.8 hPa NW 1.6 km/h 9.7 km/h 93 % 0.0 mm 0 W/m2
05:35 4.7 °C 3.7 °C 1018.2 hPa NNW 4.8 km/h 8.0 km/h 93 % 0.0 mm 0 W/m2
05:40 4.7 °C 3.7 °C 1017.8 hPa NNW 3.2 km/h 8.0 km/h 93 % 0.0 mm 0 W/m2
05:45 4.8 °C 3.8 °C 1018.2 hPa NW 1.6 km/h 9.7 km/h 93 % 0.0 mm 0 W/m2
05:50 4.7 °C 3.6 °C 1017.8 hPa Calm   9.7 km/h 93 % 0.0 mm 0 W/m2
05:55 4.6 °C 3.5 °C 1018.2 hPa Calm   6.4 km/h 93 % 0.0 mm 0 W/m2
06:00 4.4 °C 3.4 °C 1018.2 hPa NW 3.2 km/h 6.4 km/h 93 % 0.0 mm 0 W/m2
06:10 4.2 °C 3.3 °C 1018.2 hPa NW 3.2 km/h 6.4 km/h 94 % 0.0 mm 0 W/m2
06:15 4.1 °C 3.2 °C 1018.2 hPa NW 1.6 km/h 8.0 km/h 94 % 0.0 mm 0 W/m2
06:20 4.2 °C 3.3 °C 1018.2 hPa NW 3.2 km/h 8.0 km/h 94 % 0.0 mm 0 W/m2
06:25 4.4 °C 3.5 °C 1018.2 hPa WNW 3.2 km/h 11.3 km/h 94 % 0.0 mm 0 W/m2
06:30 4.3 °C 3.5 °C 1018.2 hPa NNW 4.8 km/h 11.3 km/h 94 % 0.0 mm 0 W/m2
06:35 4.4 °C 3.6 °C 1018.2 hPa WNW 3.2 km/h 8.0 km/h 94 % 0.0 mm 0 W/m2
06:40 4.4 °C 3.5 °C 1018.5 hPa NW 3.2 km/h 8.0 km/h 94 % 0.0 mm 0 W/m2
06:45 4.4 °C 3.5 °C 1018.5 hPa NNW 4.8 km/h 8.0 km/h 94 % 0.0 mm 0 W/m2
06:55 4.3 °C 3.5 °C 1018.5 hPa NW 3.2 km/h 9.7 km/h 94 % 0.0 mm 0 W/m2
07:00 4.4 °C 3.5 °C 1018.5 hPa NW 1.6 km/h 6.4 km/h 94 % 0.0 mm 0 W/m2
07:05 4.3 °C 3.5 °C 1018.5 hPa NW 3.2 km/h 6.4 km/h 94 % 0.0 mm 0 W/m2
07:10 4.1 °C 3.2 °C 1018.5 hPa NW 1.6 km/h 8.0 km/h 94 % 0.0 mm 0 W/m2
07:15 3.9 °C 3.1 °C 1018.5 hPa NNW 1.6 km/h 8.0 km/h 94 % 0.0 mm 0 W/m2
07:20 3.9 °C 3.1 °C 1018.5 hPa NW 4.8 km/h 8.0 km/h 94 % 0.0 mm 0 W/m2
07:25 3.8 °C 2.9 °C 1018.5 hPa NNW 8.0 km/h 9.7 km/h 94 % 0.0 mm 0 W/m2
07:30 3.7 °C 3.0 °C 1018.5 hPa NW 1.6 km/h 9.7 km/h 95 % 0.0 mm 0 W/m2
07:40 3.6 °C 2.9 °C 1018.8 hPa North 3.2 km/h 12.9 km/h 95 % 0.0 mm 0 W/m2
07:45 3.7 °C 3.0 °C 1018.8 hPa NW 3.2 km/h 12.9 km/h 95 % 0.0 mm 0 W/m2
07:50 3.8 °C 3.1 °C 1018.8 hPa NNW 4.8 km/h 9.7 km/h 95 % 0.0 mm 0 W/m2
07:55 3.8 °C 3.1 °C 1019.2 hPa NW 3.2 km/h 9.7 km/h 95 % 0.0 mm 0 W/m2
08:00 3.9 °C 3.2 °C 1019.2 hPa NNW 1.6 km/h 9.7 km/h 95 % 0.0 mm 5 W/m2
08:05 3.9 °C 3.2 °C 1019.2 hPa NNW 3.2 km/h 12.9 km/h 95 % 0.0 mm 7 W/m2
08:10 3.9 °C 3.2 °C 1019.2 hPa NNW 3.2 km/h 12.9 km/h 95 % 0.0 mm 11 W/m2
08:15 4.1 °C 3.4 °C 1019.2 hPa NW 4.8 km/h 12.9 km/h 95 % 0.0 mm 14 W/m2
08:25 4.4 °C 3.5 °C 1019.5 hPa North 9.7 km/h 14.5 km/h 94 % 0.0 mm 23 W/m2
08:30 4.6 °C 3.7 °C 1019.5 hPa NNW 3.2 km/h 11.3 km/h 94 % 0.0 mm 28 W/m2
08:35 4.6 °C 3.7 °C 1019.5 hPa NNW 3.2 km/h 11.3 km/h 94 % 0.0 mm 33 W/m2
08:40 4.6 °C 3.7 °C 1019.9 hPa NNW 3.2 km/h 9.7 km/h 94 % 0.0 mm 39 W/m2
08:45 4.7 °C 3.8 °C 1019.9 hPa NNW 4.8 km/h 11.3 km/h 94 % 0.0 mm 46 W/m2
08:50 4.8 °C 3.9 °C 1019.9 hPa NNW 6.4 km/h 11.3 km/h 94 % 0.0 mm 51 W/m2
08:55 4.9 °C 4.0 °C 1019.9 hPa WNW 1.6 km/h 11.3 km/h 94 % 0.0 mm 58 W/m2
09:00 5.1 °C 4.2 °C 1019.9 hPa NNW 14.5 km/h 16.1 km/h 94 % 0.0 mm 60 W/m2
09:10 5.4 °C 4.4 °C 1020.2 hPa North 6.4 km/h 16.1 km/h 93 % 0.0 mm 91 W/m2
09:15 5.8 °C 4.8 °C 1020.2 hPa NW 1.6 km/h 16.1 km/h 93 % 0.0 mm 100 W/m2
09:20 6.3 °C 5.1 °C 1020.2 hPa WNW 11.3 km/h 12.9 km/h 92 % 0.0 mm 98 W/m2
09:25 6.5 °C 5.0 °C 1020.2 hPa NNW 11.3 km/h 12.9 km/h 90 % 0.0 mm 84 W/m2
09:30 6.4 °C 4.9 °C 1020.5 hPa North 6.4 km/h 12.9 km/h 90 % 0.0 mm 76 W/m2
09:35 6.4 °C 4.9 °C 1020.5 hPa NNW 3.2 km/h 12.9 km/h 90 % 0.0 mm 86 W/m2
09:40 6.5 °C 5.0 °C 1020.5 hPa NNW 4.8 km/h 12.9 km/h 90 % 0.0 mm 84 W/m2
09:45 6.7 °C 5.1 °C 1020.5 hPa NW 9.7 km/h 9.7 km/h 90 % 0.0 mm 86 W/m2
09:55 7.0 °C 5.1 °C 1020.5 hPa NNW 4.8 km/h 9.7 km/h 88 % 0.0 mm 100 W/m2
10:00 7.3 °C 5.3 °C 1020.5 hPa NW 6.4 km/h 9.7 km/h 87 % 0.0 mm 109 W/m2
10:05 7.5 °C 5.3 °C 1020.5 hPa Calm   9.7 km/h 86 % 0.0 mm 128 W/m2
10:10 7.8 °C 5.6 °C 1020.9 hPa NW 8.0 km/h 9.7 km/h 86 % 0.0 mm 243 W/m2
10:15 8.1 °C 5.5 °C 1020.9 hPa NW 4.8 km/h 11.3 km/h 84 % 0.0 mm 241 W/m2
10:20 8.2 °C 5.5 °C 1020.5 hPa NNW 1.6 km/h 12.9 km/h 83 % 0.0 mm 262 W/m2
10:25 8.3 °C 5.6 °C 1020.9 hPa NW 3.2 km/h 12.9 km/h 83 % 0.0 mm 276 W/m2
10:30 8.4 °C 5.7 °C 1020.9 hPa NW 3.2 km/h 9.7 km/h 83 % 0.0 mm 292 W/m2
10:40 8.8 °C 5.6 °C 1020.9 hPa NW 3.2 km/h 9.7 km/h 80 % 0.0 mm 323 W/m2
10:45 8.8 °C 5.7 °C 1020.9 hPa NNW 9.7 km/h 9.7 km/h 81 % 0.0 mm 323 W/m2
10:50 8.8 °C 5.4 °C 1020.9 hPa NNE 4.8 km/h 11.3 km/h 79 % 0.0 mm 338 W/m2
10:55 9.1 °C 5.8 °C 1020.9 hPa NNW 3.2 km/h 11.3 km/h 80 % 0.0 mm 383 W/m2
11:00 9.4 °C 6.0 °C 1020.9 hPa NNW 3.2 km/h 11.3 km/h 79 % 0.0 mm 387 W/m2
11:05 9.5 °C 6.0 °C 1021.2 hPa Calm   12.9 km/h 79 % 0.0 mm 380 W/m2
11:10 9.8 °C 6.1 °C 1021.2 hPa NNW 1.6 km/h 12.9 km/h 78 % 0.0 mm 390 W/m2
11:15 10.2 °C 6.5 °C 1021.2 hPa North 6.4 km/h 12.9 km/h 78 % 0.0 mm 411 W/m2
11:25 10.2 °C 6.1 °C 1021.2 hPa North 3.2 km/h 16.1 km/h 76 % 0.0 mm 422 W/m2
11:30 10.3 °C 6.1 °C 1021.2 hPa North 6.4 km/h 14.5 km/h 75 % 0.0 mm 429 W/m2
11:35 10.5 °C 6.3 °C 1021.2 hPa NNW 8.0 km/h 12.9 km/h 75 % 0.0 mm 432 W/m2
11:40 10.7 °C 6.2 °C 1021.2 hPa NNW 6.4 km/h 14.5 km/h 74 % 0.0 mm 438 W/m2
11:45 10.7 °C 6.2 °C 1021.2 hPa NW 4.8 km/h 14.5 km/h 74 % 0.0 mm 459 W/m2
11:50 11.1 °C 6.3 °C 1021.2 hPa NW 4.8 km/h 11.3 km/h 72 % 0.0 mm 466 W/m2
11:55 11.2 °C 5.9 °C 1021.2 hPa North 3.2 km/h 16.1 km/h 70 % 0.0 mm 469 W/m2
12:00 11.3 °C 5.8 °C 1021.2 hPa NW 6.4 km/h 16.1 km/h 69 % 0.0 mm 492 W/m2
12:10 11.8 °C 6.3 °C 1021.2 hPa NNW 6.4 km/h 16.1 km/h 69 % 0.0 mm 388 W/m2
12:15 11.4 °C 6.2 °C 1021.2 hPa NNW 6.4 km/h 16.1 km/h 70 % 0.0 mm 494 W/m2
12:20 11.8 °C 6.3 °C 1021.2 hPa North 3.2 km/h 16.1 km/h 69 % 0.0 mm 497 W/m2
12:25 11.7 °C 6.0 °C 1021.2 hPa NW 4.8 km/h 16.1 km/h 68 % 0.0 mm 459 W/m2
12:30 12.2 °C 6.6 °C 1021.2 hPa NNW 9.7 km/h 12.9 km/h 69 % 0.0 mm 526 W/m2
12:35 12.2 °C 6.3 °C 1021.2 hPa WNW 6.4 km/h 12.9 km/h 67 % 0.0 mm 596 W/m2
12:40 12.3 °C 6.3 °C 1021.2 hPa NW 6.4 km/h 14.5 km/h 67 % 0.0 mm 540 W/m2
12:45 12.3 °C 6.8 °C 1021.2 hPa NNW 8.0 km/h 14.5 km/h 69 % 0.0 mm 526 W/m2
12:55 12.7 °C 7.3 °C 1021.2 hPa NNW 9.7 km/h 14.5 km/h 70 % 0.0 mm 534 W/m2
13:00 12.4 °C 6.4 °C 1021.2 hPa North 8.0 km/h 16.1 km/h 67 % 0.0 mm 557 W/m2
13:05 12.3 °C 5.9 °C 1021.2 hPa NNW 4.8 km/h 16.1 km/h 65 % 0.0 mm 566 W/m2
13:10 12.9 °C 7.4 °C 1020.9 hPa NW 9.7 km/h 14.5 km/h 69 % 0.0 mm 564 W/m2
13:15 12.7 °C 5.9 °C 1021.2 hPa North 8.0 km/h 14.5 km/h 63 % 0.0 mm 594 W/m2
13:20 11.8 °C 5.2 °C 1021.2 hPa NW 4.8 km/h 14.5 km/h 64 % 0.0 mm 148 W/m2
13:25 11.6 °C 5.5 °C 1021.2 hPa North 14.5 km/h 14.5 km/h 66 % 0.0 mm 482 W/m2
13:30 12.4 °C 6.2 °C 1020.9 hPa North 11.3 km/h 14.5 km/h 66 % 0.0 mm 550 W/m2
13:40 12.9 °C 5.3 °C 1020.9 hPa NNW 9.7 km/h 19.3 km/h 60 % 0.0 mm 654 W/m2
13:45 13.0 °C 5.2 °C 1020.9 hPa North 4.8 km/h 14.5 km/h 59 % 0.0 mm 571 W/m2
13:50 13.5 °C 6.6 °C 1020.9 hPa NW 8.0 km/h 14.5 km/h 63 % 0.0 mm 722 W/m2
13:55 12.8 °C 4.7 °C 1021.2 hPa North 11.3 km/h 17.7 km/h 58 % 0.0 mm 265 W/m2
14:00 13.1 °C 6.2 °C 1021.2 hPa Calm   17.7 km/h 63 % 0.0 mm 624 W/m2
14:05 13.3 °C 5.0 °C 1020.9 hPa North 4.8 km/h 16.1 km/h 57 % 0.0 mm 650 W/m2
14:10 12.6 °C 4.8 °C 1020.9 hPa North 4.8 km/h 14.5 km/h 59 % 0.0 mm 183 W/m2
14:15 11.6 °C 3.9 °C 1020.9 hPa North 8.0 km/h 17.7 km/h 59 % 0.0 mm 144 W/m2
14:25 12.4 °C 4.9 °C 1020.9 hPa North 9.7 km/h 16.1 km/h 60 % 0.0 mm 190 W/m2
14:30 12.7 °C 5.3 °C 1020.9 hPa NE 8.0 km/h 14.5 km/h 61 % 0.0 mm 541 W/m2
14:35 13.2 °C 4.6 °C 1020.9 hPa North 9.7 km/h 17.7 km/h 56 % 0.0 mm 519 W/m2
14:40 13.2 °C 4.9 °C 1020.9 hPa NNW 3.2 km/h 17.7 km/h 57 % 0.0 mm 559 W/m2
14:45 13.4 °C 4.8 °C 1020.9 hPa NNW 8.0 km/h 16.1 km/h 56 % 0.0 mm 575 W/m2
14:50 13.7 °C 5.3 °C 1020.9 hPa NNW 6.4 km/h 16.1 km/h 57 % 0.0 mm 561 W/m2
14:55 13.3 °C 5.0 °C 1020.9 hPa NW 6.4 km/h 17.7 km/h 57 % 0.0 mm 339 W/m2
15:00 12.8 °C 5.0 °C 1020.9 hPa NNW 6.4 km/h 17.7 km/h 59 % 0.0 mm 120 W/m2
15:10 12.8 °C 5.2 °C 1020.9 hPa WNW 4.8 km/h 16.1 km/h 60 % 0.0 mm 450 W/m2
15:15 13.4 °C 5.5 °C 1020.9 hPa NNW 4.8 km/h 16.1 km/h 59 % 0.0 mm 452 W/m2
15:20 12.4 °C 4.2 °C 1020.9 hPa NNW 9.7 km/h 14.5 km/h 57 % 0.0 mm 183 W/m2
15:25 12.6 °C 4.8 °C 1020.9 hPa NW 11.3 km/h 14.5 km/h 59 % 0.0 mm 485 W/m2
15:30 12.9 °C 4.6 °C 1020.9 hPa NW 4.8 km/h 16.1 km/h 57 % 0.0 mm 466 W/m2
15:35 13.3 °C 5.7 °C 1020.9 hPa NE 17.7 km/h 17.7 km/h 60 % 0.0 mm 171 W/m2
15:40 12.2 °C 4.4 °C 1021.2 hPa NNW 6.4 km/h 20.9 km/h 59 % 0.0 mm 114 W/m2
15:45 11.5 °C 4.2 °C 1020.9 hPa NNE 4.8 km/h 20.9 km/h 61 % 0.0 mm 218 W/m2
15:55 12.2 °C 3.7 °C 1020.9 hPa NNE 8.0 km/h 12.9 km/h 56 % 0.0 mm 366 W/m2
16:00 12.6 °C 4.6 °C 1020.9 hPa NW 8.0 km/h 12.9 km/h 58 % 0.0 mm 357 W/m2
16:05 12.7 °C 4.9 °C 1020.9 hPa NNW 4.8 km/h 16.1 km/h 59 % 0.0 mm 334 W/m2
16:10 12.7 °C 4.6 °C 1020.9 hPa NNW 6.4 km/h 16.1 km/h 58 % 0.0 mm 318 W/m2
16:15 12.5 °C 4.7 °C 1020.9 hPa North 4.8 km/h 16.1 km/h 59 % 0.0 mm 285 W/m2
16:20 12.1 °C 3.5 °C 1020.9 hPa NNW 8.0 km/h 16.1 km/h 56 % 0.0 mm 134 W/m2
16:25 11.8 °C 4.3 °C 1020.5 hPa North 12.9 km/h 16.1 km/h 60 % 0.0 mm 239 W/m2
16:30 11.7 °C 4.2 °C 1020.5 hPa Calm   12.9 km/h 60 % 0.0 mm 100 W/m2
16:40 11.9 °C 4.2 °C 1020.5 hPa NE 9.7 km/h 9.7 km/h 59 % 0.0 mm 264 W/m2
16:45 12.0 °C 4.0 °C 1020.5 hPa Calm   14.5 km/h 58 % 0.0 mm 83 W/m2
16:50 11.8 °C 3.5 °C 1020.9 hPa Calm   14.5 km/h 57 % 0.0 mm 127 W/m2
16:55 11.7 °C 4.4 °C 1020.9 hPa North 3.2 km/h 9.7 km/h 61 % 0.0 mm 141 W/m2
17:00 11.5 °C 4.0 °C 1020.9 hPa WNW 9.7 km/h 9.7 km/h 60 % 0.0 mm 171 W/m2
17:05 11.4 °C 4.1 °C 1020.9 hPa WNW 6.4 km/h 9.7 km/h 61 % 0.0 mm 116 W/m2
17:10 11.4 °C 3.9 °C 1020.9 hPa WNW 3.2 km/h 9.7 km/h 60 % 0.0 mm 72 W/m2
17:15 11.1 °C 4.9 °C 1020.9 hPa WNW 8.0 km/h 11.3 km/h 66 % 0.0 mm 62 W/m2
17:25 10.0 °C 5.6 °C 1020.9 hPa NW 6.4 km/h 11.3 km/h 74 % 0.0 mm 69 W/m2
17:30 10.1 °C 6.0 °C 1021.2 hPa WNW 4.8 km/h 12.9 km/h 76 % 0.0 mm 91 W/m2
17:35 10.2 °C 5.9 °C 1021.2 hPa NW 4.8 km/h 14.5 km/h 75 % 0.0 mm 90 W/m2
17:40 10.2 °C 6.2 °C 1021.2 hPa WNW 6.4 km/h 14.5 km/h 76 % 0.0 mm 76 W/m2
17:45 10.1 °C 6.1 °C 1021.2 hPa WNW 4.8 km/h 12.9 km/h 76 % 0.0 mm 58 W/m2
17:50 9.9 °C 6.3 °C 1021.6 hPa WNW 6.4 km/h 12.9 km/h 78 % 0.0 mm 37 W/m2
17:55 9.8 °C 5.9 °C 1021.6 hPa West 4.8 km/h 12.9 km/h 77 % 0.0 mm 32 W/m2
18:00 9.7 °C 6.0 °C 1021.2 hPa WNW 4.8 km/h 14.5 km/h 78 % 0.0 mm 26 W/m2
18:10 9.5 °C 5.7 °C 1021.6 hPa North 1.6 km/h 14.5 km/h 77 % 0.0 mm 25 W/m2
18:15 9.4 °C 5.6 °C 1021.6 hPa NW 11.3 km/h 16.1 km/h 77 % 0.0 mm 21 W/m2
18:20 9.4 °C 5.7 °C 1021.6 hPa WNW 11.3 km/h 16.1 km/h 78 % 0.0 mm 16 W/m2
18:25 9.4 °C 5.7 °C 1021.6 hPa NW 8.0 km/h 14.5 km/h 78 % 0.0 mm 11 W/m2
18:30 9.3 °C 5.8 °C 1021.6 hPa NW 3.2 km/h 14.5 km/h 79 % 0.0 mm 7 W/m2
18:35 8.9 °C 5.5 °C 1021.6 hPa NW 4.8 km/h 11.3 km/h 79 % 0.0 mm 5 W/m2
18:40 8.7 °C 5.5 °C 1021.6 hPa NW 3.2 km/h 8.0 km/h 80 % 0.0 mm 0 W/m2
18:45 8.6 °C 5.4 °C 1021.6 hPa Calm   6.4 km/h 80 % 0.0 mm 0 W/m2
18:55 8.1 °C 5.2 °C 1021.9 hPa Calm   6.4 km/h 82 % 0.0 mm 0 W/m2
19:00 8.1 °C 5.2 °C 1021.9 hPa WSW 3.2 km/h 4.8 km/h 82 % 0.0 mm 0 W/m2
19:05 7.8 °C 5.1 °C 1021.9 hPa Calm   6.4 km/h 83 % 0.0 mm 0 W/m2
19:10 7.5 °C 5.0 °C 1021.9 hPa West 1.6 km/h 6.4 km/h 84 % 0.0 mm 0 W/m2
19:15 7.4 °C 5.0 °C 1022.2 hPa Calm   6.4 km/h 85 % 0.0 mm 0 W/m2
19:20 7.6 °C 5.2 °C 1022.2 hPa Calm   6.4 km/h 85 % 0.0 mm 0 W/m2
19:25 7.5 °C 5.1 °C 1022.2 hPa WNW 4.8 km/h 6.4 km/h 85 % 0.0 mm 0 W/m2
19:30 7.2 °C 4.8 °C 1022.2 hPa WNW 3.2 km/h 11.3 km/h 85 % 0.0 mm 0 W/m2
19:40 6.8 °C 4.8 °C 1022.2 hPa Calm   4.8 km/h 87 % 0.0 mm 0 W/m2
19:45 6.6 °C 4.5 °C 1022.2 hPa Calm   4.8 km/h 87 % 0.0 mm 0 W/m2
19:50 6.3 °C 4.5 °C 1022.6 hPa WNW 1.6 km/h 4.8 km/h 88 % 0.0 mm 0 W/m2
19:55 6.3 °C 4.8 °C 1022.6 hPa WNW 3.2 km/h 4.8 km/h 90 % 0.0 mm 0 W/m2
20:00 6.3 °C 4.8 °C 1022.6 hPa WNW 3.2 km/h 4.8 km/h 90 % 0.0 mm 0 W/m2
20:05 6.1 °C 4.5 °C 1022.6 hPa Calm   4.8 km/h 90 % 0.0 mm 0 W/m2
20:10 5.6 °C 4.0 °C 1022.6 hPa Calm   4.8 km/h 90 % 0.0 mm 0 W/m2
20:15 5.3 °C 4.0 °C 1022.6 hPa Calm   3.2 km/h 91 % 0.0 mm 0 W/m2
20:25 5.3 °C 4.1 °C 1022.6 hPa Calm     92 % 0.0 mm 0 W/m2
20:30 5.2 °C 4.0 °C 1022.6 hPa Calm   1.6 km/h 92 % 0.0 mm 0 W/m2
20:35 4.9 °C 3.7 °C 1022.6 hPa Calm   1.6 km/h 92 % 0.0 mm 0 W/m2
20:40 4.8 °C 3.7 °C 1022.6 hPa Calm   4.8 km/h 93 % 0.0 mm 0 W/m2
20:45 5.3 °C 4.4 °C 1022.6 hPa Calm   4.8 km/h 94 % 0.0 mm 0 W/m2
20:50 4.9 °C 3.8 °C 1022.6 hPa Calm   3.2 km/h 92 % 0.0 mm 0 W/m2
20:55 5.1 °C 4.2 °C 1022.6 hPa WNW 1.6 km/h 3.2 km/h 94 % 0.0 mm 0 W/m2
21:00 5.2 °C 4.1 °C 1022.9 hPa Calm   3.2 km/h 93 % 0.0 mm 0 W/m2
21:10 5.1 °C 4.0 °C 1022.9 hPa Calm   4.8 km/h 93 % 0.0 mm 0 W/m2
21:15 4.9 °C 3.9 °C 1022.9 hPa WNW 1.6 km/h 3.2 km/h 93 % 0.0 mm 0 W/m2
21:20 4.8 °C 3.8 °C 1022.9 hPa Calm   3.2 km/h 93 % 0.0 mm 0 W/m2
21:25 4.8 °C 3.9 °C 1022.9 hPa Calm   1.6 km/h 94 % 0.0 mm 0 W/m2
21:30 4.4 °C 3.4 °C 1022.9 hPa Calm     93 % 0.0 mm 0 W/m2
21:35 4.2 °C 3.3 °C 1023.2 hPa Calm     94 % 0.0 mm 0 W/m2
21:40 4.1 °C 3.2 °C 1023.2 hPa Calm     94 % 0.0 mm 0 W/m2
21:45 3.9 °C 3.1 °C 1023.2 hPa Calm     94 % 0.0 mm 0 W/m2
21:55 4.2 °C 3.4 °C 1023.2 hPa Calm   1.6 km/h 95 % 0.0 mm 0 W/m2
22:00 4.2 °C 3.3 °C 1023.2 hPa Calm   1.6 km/h 94 % 0.0 mm 0 W/m2
22:05 4.2 °C 3.4 °C 1023.6 hPa WNW 1.6 km/h 3.2 km/h 95 % 0.0 mm 0 W/m2
22:10 4.2 °C 3.4 °C 1023.6 hPa Calm   3.2 km/h 95 % 0.0 mm 0 W/m2
22:15 4.2 °C 3.4 °C 1023.2 hPa Calm   1.6 km/h 95 % 0.0 mm 0 W/m2
22:20 4.1 °C 3.3 °C 1023.6 hPa Calm   1.6 km/h 95 % 0.0 mm 0 W/m2
22:25 4.0 °C 3.3 °C 1023.6 hPa Calm   1.6 km/h 95 % 0.0 mm 0 W/m2
22:30 3.9 °C 3.2 °C 1023.6 hPa Calm   1.6 km/h 95 % 0.0 mm 0 W/m2
22:40 3.8 °C 3.1 °C 1023.2 hPa Calm   1.6 km/h 95 % 0.0 mm 0 W/m2
22:45 3.8 °C 3.1 °C 1023.2 hPa WNW 1.6 km/h 3.2 km/h 95 % 0.0 mm 0 W/m2
22:50 3.7 °C 3.0 °C 1023.2 hPa Calm   3.2 km/h 95 % 0.0 mm 0 W/m2
22:55 3.3 °C 2.6 °C 1023.2 hPa Calm   3.2 km/h 95 % 0.0 mm 0 W/m2
23:00 3.4 °C 2.7 °C 1023.2 hPa WNW 1.6 km/h 1.6 km/h 95 % 0.0 mm 0 W/m2
23:05 3.3 °C 2.6 °C 1023.2 hPa Calm   1.6 km/h 95 % 0.0 mm 0 W/m2
23:10 3.2 °C 2.4 °C 1023.2 hPa Calm     95 % 0.0 mm 0 W/m2
23:15 3.3 °C 2.7 °C 1023.2 hPa Calm   1.6 km/h 96 % 0.0 mm 0 W/m2
23:25 3.3 °C 2.7 °C 1023.2 hPa Calm     96 % 0.0 mm 0 W/m2
23:30 3.2 °C 2.6 °C 1023.2 hPa WNW 3.2 km/h 4.8 km/h 96 % 0.0 mm 0 W/m2
23:35 3.2 °C 2.6 °C 1023.2 hPa Calm   4.8 km/h 96 % 0.0 mm 0 W/m2
23:40 2.9 °C 2.2 °C 1023.2 hPa Calm   4.8 km/h 95 % 0.0 mm 0 W/m2
23:45 3.1 °C 2.5 °C 1023.2 hPa WNW 1.6 km/h 1.6 km/h 96 % 0.0 mm 0 W/m2
23:50 2.9 °C 2.3 °C 1022.9 hPa Calm   1.6 km/h 96 % 0.0 mm 0 W/m2
23:55 2.8 °C 2.2 °C 1022.9 hPa Calm   1.6 km/h 96 % 0.0 mm 0 W/m2
Avec l'autorisation de Weather Underground - 1.5 mb